Time;durP1;ratioP1;P1;durP2;ratioP2;P2;SDS_P1;SDS_P2;PMS_P1;PMS_P2;Temp;Humidity;BMP_temperature;BMP_pressure;BME280_temperature;BME280_humidity;BME280_pressure;Samples;Min_cycle;Max_cycle;Signal;HPM_P1;HPM_P2
2021/12/06 00:01:00;;;;;;;24.73;9.93;;;10.80;99.90;;;;;;4961525;28;113890;-59
2021/12/06 00:03:41;;;;;;;35.53;12.57;;;10.80;99.90;;;;;;4960566;28;115586;-62
2021/12/06 00:06:08;;;;;;;36.42;7.40;;;10.90;99.90;;;;;;4959029;28;113015;-63
2021/12/06 00:08:34;;;;;;;24.27;7.10;;;10.80;99.90;;;;;;4960180;28;114746;-61
2021/12/06 00:11:06;;;;;;;26.27;6.93;;;10.80;99.90;;;;;;4962963;28;114295;-62
2021/12/06 00:13:35;;;;;;;19.77;8.15;;;10.80;99.90;;;;;;4944307;28;112764;-61
2021/12/06 00:16:06;;;;;;;21.73;6.35;;;10.80;99.90;;;;;;4961827;28;112802;-62
2021/12/06 00:18:31;;;;;;;53.38;23.95;;;10.90;99.90;;;;;;4945390;28;113515;-62
2021/12/06 00:20:57;;;;;;;52.22;26.90;;;10.80;99.90;;;;;;4959480;28;114006;-63
2021/12/06 00:23:23;;;;;;;57.72;24.73;;;10.90;99.90;;;;;;4962453;28;112791;-61
2021/12/06 00:25:49;;;;;;;54.85;23.98;;;10.90;99.90;;;;;;4961250;28;112283;-62
2021/12/06 00:28:14;;;;;;;36.58;19.27;;;10.90;99.90;;;;;;4944065;28;114207;-63
2021/12/06 00:30:40;;;;;;;31.58;13.18;;;11.00;99.90;;;;;;4961257;28;112673;-60
2021/12/06 00:33:07;;;;;;;37.33;11.10;;;11.00;99.90;;;;;;4962720;28;112263;-62
2021/12/06 00:35:33;;;;;;;23.55;7.13;;;11.00;99.90;;;;;;4960673;28;112620;-63
2021/12/06 00:38:00;;;;;;;12.48;4.75;;;11.00;99.90;;;;;;4946945;23;113642;-63
2021/12/06 00:40:42;;;;;;;17.65;3.80;;;11.00;99.90;;;;;;4962290;28;114344;-63
2021/12/06 00:43:08;;;;;;;17.10;3.30;;;11.00;99.90;;;;;;4946641;28;112688;-61
2021/12/06 00:45:35;;;;;;;16.35;3.80;;;10.90;99.90;;;;;;4965121;28;112530;-61
2021/12/06 00:48:01;;;;;;;16.60;3.72;;;10.90;99.90;;;;;;4964194;28;114427;-60
2021/12/06 00:50:30;;;;;;;16.38;3.97;;;10.90;99.90;;;;;;4946849;28;114310;-61
2021/12/06 00:52:56;;;;;;;11.50;2.50;;;10.90;99.90;;;;;;4965752;28;112667;-60
2021/12/06 00:55:23;;;;;;;13.88;3.13;;;10.80;99.90;;;;;;4975105;22;112637;-64
2021/12/06 00:57:52;;;;;;;18.02;6.75;;;10.80;99.90;;;;;;4965449;28;113557;-62
2021/12/06 01:00:46;;;;;;;35.58;17.23;;;10.80;99.90;;;;;;4963781;28;114389;-62
2021/12/06 01:03:20;;;;;;;16.25;7.95;;;10.90;99.90;;;;;;4960829;28;112441;-61
2021/12/06 01:05:47;;;;;;;21.25;6.57;;;10.90;99.90;;;;;;4962588;22;118472;-66
2021/12/06 01:08:14;;;;;;;18.85;5.50;;;10.90;99.90;;;;;;4946401;28;113016;-64
2021/12/06 01:10:40;;;;;;;14.98;7.18;;;10.90;99.90;;;;;;4956328;28;114039;-63
2021/12/06 01:13:06;;;;;;;27.98;13.98;;;10.90;99.90;;;;;;4965874;28;114192;-64
2021/12/06 01:15:34;;;;;;;10.25;4.30;;;10.90;99.90;;;;;;4954264;28;112380;-65
2021/12/06 01:18:02;;;;;;;15.95;4.43;;;10.90;99.90;;;;;;4945734;28;114342;-66
2021/12/06 01:20:31;;;;;;;18.73;3.38;;;10.90;99.90;;;;;;4947727;28;114150;-64
2021/12/06 01:30:57;;;;;;;10.27;2.72;;;10.90;99.90;;;;;;4874304;28;112585;-66
2021/12/06 01:41:30;;;;;;;9.05;2.00;;;10.90;99.90;;;;;;4951170;28;112424;-65
2021/12/06 01:44:09;;;;;;;11.23;1.95;;;10.80;99.90;;;;;;4946497;28;112481;-64
2021/12/06 01:46:38;;;;;;;7.80;2.00;;;10.90;99.90;;;;;;4959328;28;112563;-64
2021/12/06 01:49:06;;;;;;;5.27;1.47;;;10.80;99.90;;;;;;4965215;28;113546;-65
2021/12/06 01:51:33;;;;;;;6.50;1.40;;;10.80;99.90;;;;;;4964511;28;112480;-65
2021/12/06 01:53:59;;;;;;;3.60;1.00;;;10.90;99.90;;;;;;4948328;28;112354;-62
2021/12/06 01:56:25;;;;;;;6.25;1.55;;;10.80;99.90;;;;;;4930654;28;113126;-66
2021/12/06 01:58:51;;;;;;;8.63;1.55;;;10.90;99.90;;;;;;4965520;28;113031;-66
2021/12/06 02:01:17;;;;;;;4.47;1.38;;;10.90;99.90;;;;;;4963601;28;113557;-63
2021/12/06 02:03:43;;;;;;;5.80;1.63;;;10.90;99.90;;;;;;4964531;28;112382;-64
2021/12/06 02:06:09;;;;;;;6.35;1.30;;;10.90;99.90;;;;;;4953886;28;112970;-65
2021/12/06 02:08:35;;;;;;;5.05;1.33;;;10.90;99.90;;;;;;4945164;28;114170;-59
2021/12/06 02:11:03;;;;;;;5.72;1.58;;;10.90;99.90;;;;;;4952358;28;113595;-64
2021/12/06 02:13:35;;;;;;;4.60;1.17;;;10.90;99.90;;;;;;4963164;22;112646;-63
2021/12/06 02:16:02;;;;;;;5.85;1.42;;;10.90;99.90;;;;;;4936330;28;112803;-62
2021/12/06 02:21:02;;;;;;;2.88;1.33;;;10.90;99.90;;;;;;4965336;28;112465;-58
2021/12/06 02:23:29;;;;;;;9.45;1.67;;;11.00;99.90;;;;;;4942794;28;113004;-62
2021/12/06 02:25:55;;;;;;;2.85;1.60;;;10.90;99.90;;;;;;4942090;28;113780;-62
2021/12/06 02:28:21;;;;;;;5.40;1.45;;;11.00;99.90;;;;;;4944286;28;113903;-62
2021/12/06 02:30:47;;;;;;;4.93;1.90;;;11.00;99.90;;;;;;4943872;28;112893;-61
2021/12/06 02:33:13;;;;;;;4.50;1.48;;;11.00;99.90;;;;;;4944199;28;112837;-62
2021/12/06 02:35:39;;;;;;;4.72;1.63;;;11.00;99.90;;;;;;4945074;28;112545;-61
2021/12/06 02:38:07;;;;;;;5.75;1.45;;;11.00;99.90;;;;;;4943679;28;114606;-61
2021/12/06 02:40:37;;;;;;;5.60;1.92;;;11.00;99.90;;;;;;4944416;28;113019;-62
2021/12/06 02:43:04;;;;;;;;;;;10.90;99.90;;;;;;4945565;28;115655;-61
2021/12/06 02:45:31;;;;;;;3.92;1.33;;;10.90;99.90;;;;;;4928787;28;112660;-62
2021/12/06 02:47:59;;;;;;;4.38;1.45;;;10.90;99.90;;;;;;4930920;28;113853;-63
2021/12/06 02:50:31;;;;;;;9.82;1.67;;;10.90;99.90;;;;;;4956151;28;112864;-60
2021/12/06 02:52:58;;;;;;;4.20;1.70;;;11.00;99.90;;;;;;4963156;28;112501;-62
2021/12/06 02:58:13;;;;;;;3.08;1.35;;;11.00;99.90;;;;;;4959324;28;113256;-61
2021/12/06 03:00:40;;;;;;;2.50;1.00;;;11.00;99.90;;;;;;4955904;28;113652;-61
2021/12/06 03:03:06;;;;;;;3.95;1.30;;;11.00;99.90;;;;;;4961732;28;112747;-61
2021/12/06 03:05:32;;;;;;;7.78;1.35;;;10.90;99.90;;;;;;4944940;28;112550;-62
2021/12/06 03:08:00;;;;;;;7.50;1.75;;;10.90;99.90;;;;;;4943089;28;113513;-60
2021/12/06 03:10:27;;;;;;;4.97;1.45;;;10.90;99.90;;;;;;4943838;28;112476;-62
2021/12/06 03:12:52;;;;;;;3.65;1.85;;;10.90;99.90;;;;;;4943970;28;112454;-60
2021/12/06 03:15:18;;;;;;;11.05;2.00;;;10.90;99.90;;;;;;4962366;28;113522;-62
2021/12/06 03:17:46;;;;;;;6.60;1.73;;;10.90;99.90;;;;;;4929614;28;114413;-62
2021/12/06 03:20:14;;;;;;;5.88;1.70;;;10.90;99.90;;;;;;4962186;28;113443;-61
2021/12/06 03:22:42;;;;;;;8.35;1.48;;;10.90;99.90;;;;;;4963826;28;112487;-62
2021/12/06 03:25:10;;;;;;;3.75;1.58;;;10.90;99.90;;;;;;4948964;28;112536;-62
2021/12/06 03:27:36;;;;;;;4.30;1.05;;;10.90;99.90;;;;;;4943154;28;113615;-62
2021/12/06 03:30:04;;;;;;;5.90;1.40;;;10.90;99.90;;;;;;4926510;28;116315;-62
2021/12/06 03:32:30;;;;;;;3.88;1.20;;;10.90;99.90;;;;;;4944352;28;112398;-63
2021/12/06 03:34:56;;;;;;;7.43;1.33;;;10.90;99.90;;;;;;4940174;28;112670;-62
2021/12/06 03:37:21;;;;;;;10.93;1.83;;;10.90;99.90;;;;;;4963188;28;114343;-64
2021/12/06 03:39:48;;;;;;;4.85;1.23;;;10.90;99.90;;;;;;4962397;28;112910;-62
2021/12/06 03:42:18;;;;;;;6.32;1.48;;;10.90;99.90;;;;;;4963494;28;112425;-62
2021/12/06 03:44:43;;;;;;;2.65;1.58;;;11.00;99.90;;;;;;4962817;28;112630;-62
2021/12/06 03:47:17;;;;;;;8.23;1.42;;;11.00;99.90;;;;;;4962782;28;112973;-61
2021/12/06 03:49:43;;;;;;;5.45;1.30;;;11.00;99.90;;;;;;4959889;28;112620;-61
2021/12/06 03:52:11;;;;;;;3.80;1.25;;;11.00;99.90;;;;;;4963907;28;112507;-61
2021/12/06 03:54:37;;;;;;;5.00;1.20;;;11.00;99.90;;;;;;4962637;28;112506;-61
2021/12/06 03:57:04;;;;;;;7.15;1.30;;;11.00;99.90;;;;;;4963065;28;114638;-60
2021/12/06 03:59:30;;;;;;;3.33;1.10;;;11.00;99.90;;;;;;4958812;28;114655;-62
2021/12/06 04:01:56;;;;;;;7.85;1.30;;;11.10;99.90;;;;;;4930061;28;112444;-60
2021/12/06 04:04:23;;;;;;;5.25;1.27;;;11.10;99.90;;;;;;4956448;28;113246;-62
2021/12/06 04:06:49;;;;;;;7.38;1.33;;;11.10;99.90;;;;;;4943287;28;113184;-62
2021/12/06 04:09:15;;;;;;;4.30;1.33;;;11.10;99.90;;;;;;4949139;28;113657;-61
2021/12/06 04:11:43;;;;;;;4.65;1.33;;;11.10;99.90;;;;;;4962877;28;112545;-59
2021/12/06 04:14:08;;;;;;;6.30;1.42;;;11.10;99.90;;;;;;4962182;28;112513;-61
2021/12/06 04:16:36;;;;;;;9.68;1.52;;;11.10;99.90;;;;;;4962110;28;114648;-61
2021/12/06 04:19:04;;;;;;;4.80;1.33;;;11.10;99.90;;;;;;4961866;28;112863;-61
2021/12/06 04:21:30;;;;;;;4.32;1.88;;;11.10;99.90;;;;;;4965474;28;112379;-63
2021/12/06 04:23:56;;;;;;;7.10;1.63;;;11.10;99.90;;;;;;4965909;28;113086;-62
2021/12/06 04:26:22;;;;;;;4.60;1.13;;;11.10;99.90;;;;;;4946564;28;113232;-62
2021/12/06 04:28:57;;;;;;;4.55;1.60;;;11.10;99.90;;;;;;4946215;28;114260;-61
2021/12/06 04:31:23;;;;;;;8.38;2.22;;;11.20;99.90;;;;;;4960575;28;112482;-61
2021/12/06 04:33:48;;;;;;;5.22;1.63;;;11.10;99.90;;;;;;4966784;28;112571;-63
2021/12/06 04:36:14;;;;;;;10.32;1.90;;;11.20;99.90;;;;;;4947880;28;113726;-61
2021/12/06 04:38:40;;;;;;;6.97;1.15;;;11.20;99.90;;;;;;4964831;28;112654;-61
2021/12/06 04:41:06;;;;;;;4.45;1.60;;;11.20;99.90;;;;;;4954404;22;112696;-66
2021/12/06 04:43:31;;;;;;;7.32;2.17;;;11.20;99.90;;;;;;4928542;28;112822;-60
2021/12/06 04:45:57;;;;;;;7.38;1.63;;;11.20;99.90;;;;;;4947202;28;114111;-62
2021/12/06 04:48:23;;;;;;;3.72;1.80;;;11.20;99.90;;;;;;4965139;28;113085;-61
2021/12/06 04:50:49;;;;;;;8.50;1.90;;;11.20;99.90;;;;;;4965163;28;112714;-60
2021/12/06 04:53:23;;;;;;;4.65;1.05;;;11.20;99.90;;;;;;4949333;28;112701;-60
2021/12/06 04:55:51;;;;;;;2.88;1.08;;;11.20;99.90;;;;;;4964805;28;113347;-61
2021/12/06 04:58:22;;;;;;;5.95;1.58;;;11.30;99.90;;;;;;4945997;28;112481;-61
2021/12/06 05:00:59;;;;;;;2.72;1.08;;;11.30;99.90;;;;;;4946817;28;112334;-59
2021/12/06 05:03:25;;;;;;;10.45;1.30;;;11.30;99.90;;;;;;4946481;28;112520;-61
2021/12/06 05:05:55;;;;;;;4.47;1.50;;;11.30;99.90;;;;;;4946917;28;112955;-61
2021/12/06 05:08:26;;;;;;;4.15;1.00;;;11.30;99.90;;;;;;4965548;28;112609;-61
2021/12/06 05:10:53;;;;;;;7.28;2.35;;;11.30;99.90;;;;;;4965652;28;112517;-61
2021/12/06 05:13:19;;;;;;;7.50;1.33;;;11.40;99.90;;;;;;4966046;28;112870;-60
2021/12/06 05:15:45;;;;;;;4.43;1.20;;;11.40;99.90;;;;;;4966280;28;113031;-60
2021/12/06 05:18:11;;;;;;;5.25;1.00;;;11.40;99.90;;;;;;4963754;28;112709;-63
2021/12/06 05:20:38;;;;;;;7.18;1.50;;;11.40;99.90;;;;;;4965716;28;112637;-59
2021/12/06 05:23:05;;;;;;;7.15;1.55;;;11.40;99.90;;;;;;4928517;28;112775;-60
2021/12/06 05:25:33;;;;;;;14.13;2.33;;;11.40;99.90;;;;;;4945991;28;113074;-61
2021/12/06 05:27:59;;;;;;;1.85;1.20;;;11.50;99.90;;;;;;4945417;28;112634;-61
2021/12/06 05:30:27;;;;;;;7.53;1.65;;;11.50;99.90;;;;;;4946423;28;112694;-61
2021/12/06 05:33:00;;;;;;;9.70;1.20;;;11.50;99.90;;;;;;4962887;28;112554;-60
2021/12/06 05:35:26;;;;;;;4.55;1.50;;;11.60;99.90;;;;;;4957315;28;113540;-61
2021/12/06 05:37:54;;;;;;;10.07;1.20;;;11.50;99.90;;;;;;4948056;28;112625;-60
2021/12/06 05:40:32;;;;;;;5.75;1.30;;;11.50;99.90;;;;;;4945729;28;112529;-60
2021/12/06 05:43:00;;;;;;;9.38;1.60;;;11.50;99.90;;;;;;4963060;28;112810;-60
2021/12/06 05:45:29;;;;;;;4.35;1.42;;;11.50;99.90;;;;;;4947486;28;115973;-62
2021/12/06 05:47:56;;;;;;;7.73;1.37;;;11.60;99.90;;;;;;4963363;28;112519;-60
2021/12/06 05:50:23;;;;;;;5.38;1.63;;;11.50;99.90;;;;;;4965516;28;112840;-61
2021/12/06 05:52:52;;;;;;;3.50;1.00;;;11.60;99.90;;;;;;4949585;28;113163;-62
2021/12/06 05:55:18;;;;;;;2.43;1.10;;;11.60;99.90;;;;;;4945596;28;113011;-60
2021/12/06 05:57:46;;;;;;;4.95;1.08;;;11.60;99.90;;;;;;4957576;28;113086;-60
2021/12/06 06:00:18;;;;;;;6.32;1.25;;;11.50;99.90;;;;;;4961702;28;112640;-61
2021/12/06 06:02:46;;;;;;;1.38;0.85;;;11.60;99.90;;;;;;4949265;28;114140;-60
2021/12/06 06:05:12;;;;;;;5.63;1.25;;;11.60;99.90;;;;;;4963992;28;113939;-61
2021/12/06 06:07:38;;;;;;;5.13;1.38;;;11.50;99.90;;;;;;4964289;28;113101;-61
2021/12/06 06:10:06;;;;;;;3.67;1.20;;;11.60;99.90;;;;;;4963324;28;112334;-61
2021/12/06 06:12:32;;;;;;;3.35;1.20;;;11.50;99.90;;;;;;4945769;28;112991;-61
2021/12/06 06:14:58;;;;;;;3.45;0.80;;;11.50;99.90;;;;;;4926855;28;115288;-60
2021/12/06 06:17:24;;;;;;;4.32;1.00;;;11.50;99.90;;;;;;4926339;28;116290;-60
2021/12/06 06:19:54;;;;;;;4.10;1.23;;;11.50;99.90;;;;;;4927840;28;112452;-60
2021/12/06 06:22:20;;;;;;;8.27;1.05;;;11.40;99.90;;;;;;4945339;28;113059;-61
2021/12/06 06:24:47;;;;;;;4.07;0.95;;;11.40;99.90;;;;;;4944596;28;113299;-65
2021/12/06 06:27:12;;;;;;;5.03;1.08;;;11.40;99.90;;;;;;4927043;28;113006;-64
2021/12/06 06:29:39;;;;;;;9.02;1.33;;;11.40;99.90;;;;;;4945875;28;112320;-60
2021/12/06 06:32:06;;;;;;;2.45;0.93;;;11.40;99.90;;;;;;4960165;28;112477;-63
2021/12/06 06:34:32;;;;;;;5.85;1.20;;;11.30;99.90;;;;;;4963699;28;113795;-62
2021/12/06 06:36:59;;;;;;;2.65;1.27;;;11.30;99.90;;;;;;4948761;28;112920;-65
2021/12/06 06:39:25;;;;;;;7.78;1.27;;;11.30;99.90;;;;;;4956957;22;112670;-61
2021/12/06 06:41:53;;;;;;;8.63;1.23;;;11.30;99.90;;;;;;4964279;28;112558;-61
2021/12/06 06:44:20;;;;;;;2.13;1.45;;;11.30;99.90;;;;;;4945541;28;114232;-62
2021/12/06 06:46:48;;;;;;;5.40;1.20;;;11.30;99.90;;;;;;4946113;28;114819;-63
2021/12/06 06:49:16;;;;;;;6.63;1.20;;;11.30;99.90;;;;;;4962943;28;115477;-62
2021/12/06 06:51:43;;;;;;;3.42;1.00;;;11.30;99.90;;;;;;4997608;22;114953;-65
2021/12/06 06:54:09;;;;;;;5.60;1.60;;;11.30;99.90;;;;;;4954663;28;116652;-64
2021/12/06 06:56:35;;;;;;;5.35;0.98;;;11.20;99.90;;;;;;4962923;28;114231;-65
2021/12/06 06:59:02;;;;;;;5.55;1.58;;;11.20;99.90;;;;;;4964540;28;112630;-63
2021/12/06 07:01:28;;;;;;;5.38;1.45;;;11.30;99.90;;;;;;4963959;28;113668;-66
2021/12/06 07:03:55;;;;;;;4.18;1.10;;;11.30;99.90;;;;;;4960397;22;114306;-62
2021/12/06 07:06:22;;;;;;;5.28;1.45;;;11.30;99.90;;;;;;4951989;28;113562;-62
2021/12/06 07:08:49;;;;;;;2.30;1.20;;;11.30;99.90;;;;;;4963939;28;112271;-61
2021/12/06 07:11:14;;;;;;;1.42;0.98;;;11.30;99.90;;;;;;4932383;28;112571;-61
2021/12/06 07:13:42;;;;;;;6.93;1.23;;;11.40;99.90;;;;;;4952071;28;114277;-62
2021/12/06 07:16:09;;;;;;;2.30;1.13;;;11.40;99.90;;;;;;4963186;28;112985;-63
2021/12/06 07:18:36;;;;;;;1.92;1.20;;;11.50;99.90;;;;;;4961857;28;112872;-61
2021/12/06 07:21:02;;;;;;;7.50;1.63;;;11.50;99.90;;;;;;4964481;28;112393;-63
2021/12/06 07:23:29;;;;;;;5.70;1.17;;;11.50;99.90;;;;;;4956990;28;113364;-62
2021/12/06 07:25:55;;;;;;;3.60;1.05;;;11.60;99.90;;;;;;4943271;28;113463;-63
2021/12/06 07:28:21;;;;;;;4.85;1.40;;;11.60;99.90;;;;;;4946750;28;112589;-61
2021/12/06 07:30:47;;;;;;;3.10;0.95;;;11.60;99.90;;;;;;4961402;28;112428;-62
2021/12/06 07:33:12;;;;;;;6.60;1.30;;;11.60;99.90;;;;;;4983733;28;113071;-62
2021/12/06 07:35:38;;;;;;;8.27;1.40;;;11.60;99.90;;;;;;4967991;28;113829;-64
2021/12/06 07:38:07;;;;;;;10.40;1.85;;;11.60;99.90;;;;;;4964266;28;112442;-62
2021/12/06 07:40:34;;;;;;;3.13;1.20;;;11.70;99.90;;;;;;4963904;28;112469;-64
2021/12/06 07:43:00;;;;;;;7.80;1.13;;;11.70;99.90;;;;;;4952764;28;114419;-62
2021/12/06 07:45:26;;;;;;;1.63;1.33;;;11.70;99.90;;;;;;4983295;28;112793;-63
2021/12/06 07:47:52;;;;;;;6.18;1.20;;;11.70;99.90;;;;;;4969319;28;112900;-62
2021/12/06 07:50:20;;;;;;;5.40;1.02;;;11.70;99.90;;;;;;4951154;28;113010;-63
2021/12/06 07:52:48;;;;;;;6.03;1.23;;;11.70;99.90;;;;;;4952727;28;114371;-61
2021/12/06 07:55:17;;;;;;;2.75;1.30;;;11.70;99.90;;;;;;4983279;28;113870;-62
2021/12/06 07:57:44;;;;;;;6.32;1.58;;;11.70;99.90;;;;;;4964105;28;114149;-62
2021/12/06 08:00:15;;;;;;;2.88;1.42;;;11.80;99.90;;;;;;4965435;28;113855;-62
2021/12/06 08:02:41;;;;;;;3.22;1.27;;;11.80;99.90;;;;;;4953358;28;114541;-61
2021/12/06 08:05:41;;;;;;;4.18;1.27;;;11.80;99.90;;;;;;4963882;28;113567;-62
2021/12/06 08:08:02;;;;;;;5.72;1.17;;;11.80;99.90;;;;;;4939319;28;113098;-61
2021/12/06 08:10:29;;;;;;;3.80;1.30;;;11.90;99.90;;;;;;4953922;28;112465;-60
2021/12/06 08:12:55;;;;;;;3.88;1.40;;;11.90;99.90;;;;;;4965196;28;113271;-62
2021/12/06 08:15:21;;;;;;;3.35;1.02;;;11.90;99.90;;;;;;4963184;28;112831;-62
2021/12/06 08:17:47;;;;;;;2.75;1.20;;;11.90;99.90;;;;;;4961658;28;112848;-62
2021/12/06 08:20:13;;;;;;;3.13;1.02;;;12.00;99.90;;;;;;4967570;28;114131;-63
2021/12/06 08:22:39;;;;;;;4.00;1.83;;;12.00;99.90;;;;;;4960968;28;113293;-66
2021/12/06 08:25:06;;;;;;;1.05;0.93;;;12.10;99.90;;;;;;4960138;28;112528;-65
2021/12/06 08:27:32;;;;;;;4.47;1.88;;;12.10;99.90;;;;;;4957972;28;112822;-64
2021/12/06 08:29:58;;;;;;;8.05;1.92;;;12.10;99.90;;;;;;4964211;28;112774;-63
2021/12/06 08:32:24;;;;;;;3.92;1.75;;;12.10;99.90;;;;;;4965649;28;113097;-63
2021/12/06 08:34:50;;;;;;;1.98;1.15;;;12.10;99.90;;;;;;4973346;28;112515;-64
2021/12/06 08:37:17;;;;;;;1.77;1.08;;;12.20;99.90;;;;;;4966342;28;113327;-64
2021/12/06 08:39:43;;;;;;;4.40;1.17;;;12.30;99.90;;;;;;4969965;28;112433;-61
2021/12/06 08:42:09;;;;;;;7.45;1.05;;;12.30;99.90;;;;;;4929212;28;113252;-62
2021/12/06 08:44:35;;;;;;;3.08;1.02;;;12.40;99.90;;;;;;4965135;28;114212;-63
2021/12/06 08:47:02;;;;;;;2.35;0.93;;;12.50;99.90;;;;;;4962320;28;113750;-62
2021/12/06 08:49:29;;;;;;;3.55;1.60;;;12.60;99.90;;;;;;4963830;28;113060;-63
2021/12/06 08:51:57;;;;;;;2.50;1.23;;;12.70;99.90;;;;;;4972949;28;113790;-62
2021/12/06 08:54:29;;;;;;;8.45;1.10;;;12.80;99.90;;;;;;4971447;28;114154;-61
2021/12/06 08:56:57;;;;;;;4.72;1.08;;;12.90;99.90;;;;;;4933536;28;112668;-63
2021/12/06 08:59:23;;;;;;;10.05;1.25;;;13.00;99.90;;;;;;4940760;28;112572;-58
2021/12/06 09:01:50;;;;;;;5.28;1.33;;;13.00;99.90;;;;;;4953034;28;113165;-60
2021/12/06 09:04:16;;;;;;;5.05;1.45;;;13.10;99.90;;;;;;4941190;28;115469;-61
2021/12/06 09:06:46;;;;;;;4.78;1.90;;;13.20;99.90;;;;;;4964873;28;112772;-60
2021/12/06 09:09:13;;;;;;;4.97;1.73;;;13.30;99.90;;;;;;4959406;28;112495;-60
2021/12/06 09:11:42;;;;;;;1.80;1.70;;;13.30;99.90;;;;;;4947677;28;113574;-61
2021/12/06 09:14:09;;;;;;;3.90;1.20;;;13.40;99.90;;;;;;4959344;28;114096;-62
2021/12/06 09:16:38;;;;;;;3.20;1.00;;;13.40;99.90;;;;;;4964899;28;112376;-61
2021/12/06 09:19:06;;;;;;;2.70;1.23;;;13.50;99.90;;;;;;4946755;28;112460;-61
2021/12/06 09:21:33;;;;;;;5.88;1.42;;;13.50;99.90;;;;;;4961815;22;114148;-60
2021/12/06 09:24:00;;;;;;;2.70;1.23;;;13.50;99.90;;;;;;4959209;28;114164;-62
2021/12/06 09:26:28;;;;;;;6.35;1.90;;;13.50;99.90;;;;;;4979815;22;112607;-62
2021/12/06 09:28:55;;;;;;;2.60;1.52;;;13.60;99.90;;;;;;4934709;28;112692;-62
2021/12/06 09:31:21;;;;;;;3.03;1.88;;;13.60;99.90;;;;;;4962831;28;113192;-60
2021/12/06 09:33:47;;;;;;;2.47;1.20;;;13.60;99.90;;;;;;4964922;28;113808;-59
2021/12/06 09:36:14;;;;;;;8.00;1.42;;;13.70;99.90;;;;;;4964469;28;112541;-59
2021/12/06 09:38:44;;;;;;;4.70;1.90;;;13.70;99.90;;;;;;4964726;28;112682;-59
2021/12/06 09:41:23;;;;;;;5.53;1.80;;;13.80;99.90;;;;;;4962324;28;113573;-59
2021/12/06 09:43:51;;;;;;;4.10;1.60;;;13.80;99.90;;;;;;4958131;28;113907;-64
2021/12/06 09:46:19;;;;;;;3.65;2.33;;;13.80;99.90;;;;;;4964841;28;112426;-67
2021/12/06 09:48:47;;;;;;;7.40;2.03;;;13.80;99.90;;;;;;4956364;28;112356;-65
2021/12/06 09:51:24;;;;;;;4.03;1.75;;;13.80;99.90;;;;;;4937830;28;113158;-66
2021/12/06 09:53:51;;;;;;;4.53;2.10;;;13.70;99.90;;;;;;4962073;28;112827;-66
2021/12/06 09:56:23;;;;;;;4.47;2.00;;;13.70;99.90;;;;;;4946724;28;112791;-66
2021/12/06 09:58:50;;;;;;;3.63;1.90;;;13.50;99.90;;;;;;4955881;28;114356;-66
2021/12/06 10:01:21;;;;;;;6.47;1.40;;;13.40;99.90;;;;;;4951875;28;115890;-68
2021/12/06 10:03:48;;;;;;;3.60;1.90;;;13.30;99.90;;;;;;4973312;22;113071;-68
2021/12/06 10:06:17;;;;;;;3.53;1.50;;;13.10;99.90;;;;;;4973387;28;112866;-63
2021/12/06 10:08:46;;;;;;;3.53;1.63;;;13.00;99.90;;;;;;4973934;28;112728;-63
2021/12/06 10:13:48;;;;;;;3.35;1.60;;;12.70;99.90;;;;;;4930171;28;112525;-66
2021/12/06 10:16:14;;;;;;;5.43;2.20;;;12.60;99.90;;;;;;4941147;28;113577;-65
2021/12/06 10:18:41;;;;;;;6.53;2.30;;;12.50;99.90;;;;;;4931874;28;113297;-64
2021/12/06 10:21:08;;;;;;;6.35;2.22;;;12.40;99.90;;;;;;4925654;28;115129;-62
2021/12/06 10:23:37;;;;;;;10.40;6.63;;;12.30;99.90;;;;;;4942818;28;112607;-62
2021/12/06 10:26:06;;;;;;;11.52;5.97;;;12.20;99.90;;;;;;4927850;28;112662;-61
2021/12/06 10:28:34;;;;;;;66.03;43.40;;;12.20;99.90;;;;;;4944864;28;112690;-63
2021/12/06 10:31:04;;;;;;;5.00;2.20;;;12.10;99.90;;;;;;4938550;28;114570;-63
2021/12/06 10:33:38;;;;;;;8.15;3.42;;;12.00;99.90;;;;;;4927551;28;112595;-63
2021/12/06 10:36:08;;;;;;;3.85;2.22;;;12.00;99.90;;;;;;4942962;28;112382;-62
2021/12/06 10:38:37;;;;;;;3.13;1.65;;;12.00;99.90;;;;;;4929364;28;115002;-61
2021/12/06 10:41:10;;;;;;;9.20;3.33;;;12.00;99.90;;;;;;4940725;28;114784;-62
2021/12/06 10:43:37;;;;;;;6.00;1.80;;;12.00;99.90;;;;;;4942725;28;112790;-62
2021/12/06 10:46:05;;;;;;;4.88;2.40;;;12.00;99.90;;;;;;4945273;28;112729;-61
2021/12/06 10:48:36;;;;;;;11.85;6.30;;;12.00;99.90;;;;;;4925882;28;112478;-61
2021/12/06 10:51:12;;;;;;;12.70;8.80;;;12.00;99.90;;;;;;4939129;28;113113;-61
2021/12/06 10:54:08;;;;;;;10.98;6.80;;;12.00;99.90;;;;;;4934123;28;115135;-61
2021/12/06 10:56:47;;;;;;;7.43;3.85;;;12.10;99.90;;;;;;4926590;28;112705;-60
2021/12/06 10:59:22;;;;;;;5.10;3.55;;;12.10;99.90;;;;;;4944626;28;112584;-60
2021/12/06 11:01:53;;;;;;;7.20;3.08;;;12.10;99.90;;;;;;4944858;28;113294;-60
2021/12/06 11:04:22;;;;;;;5.20;3.33;;;12.10;99.90;;;;;;4942761;28;112951;-59
2021/12/06 11:06:52;;;;;;;4.45;1.88;;;12.20;99.90;;;;;;4935185;28;114085;-61
2021/12/06 11:09:22;;;;;;;4.50;2.45;;;12.20;99.90;;;;;;4943785;28;112597;-62
2021/12/06 11:11:50;;;;;;;24.05;12.15;;;12.20;99.90;;;;;;4945313;28;113542;-58
2021/12/06 11:14:27;;;;;;;22.27;9.95;;;12.20;99.90;;;;;;4954040;28;113189;-57
2021/12/06 11:16:57;;;;;;;41.97;26.73;;;12.30;99.90;;;;;;4962111;28;112459;-57
2021/12/06 11:19:25;;;;;;;13.55;5.65;;;12.30;99.90;;;;;;4958757;28;112584;-59
2021/12/06 11:21:54;;;;;;;10.27;5.55;;;12.40;99.90;;;;;;4940767;28;116073;-60
2021/12/06 11:24:46;;;;;;;8.68;3.33;;;12.40;99.90;;;;;;4956587;28;113530;-62
2021/12/06 11:27:20;;;;;;;5.80;3.40;;;12.40;99.90;;;;;;4937574;28;112601;-60
2021/12/06 11:29:49;;;;;;;8.07;3.40;;;12.30;99.90;;;;;;4952457;28;112604;-61
2021/12/06 11:32:26;;;;;;;5.60;3.57;;;12.40;99.90;;;;;;4936733;28;114556;-59
2021/12/06 11:34:58;;;;;;;7.45;3.53;;;12.30;99.90;;;;;;4951841;28;112937;-60
2021/12/06 11:37:24;;;;;;;9.05;3.65;;;12.30;99.90;;;;;;4954123;28;112520;-60
2021/12/06 11:40:12;;;;;;;56.47;27.05;;;12.30;99.90;;;;;;4953769;28;112938;-60
2021/12/06 11:42:48;;;;;;;24.25;10.95;;;12.30;99.90;;;;;;4946614;28;113845;-61
2021/12/06 11:45:14;;;;;;;15.30;8.82;;;12.30;99.90;;;;;;4953164;28;112583;-60
2021/12/06 11:47:40;;;;;;;40.13;27.42;;;12.30;99.90;;;;;;4934867;28;112704;-59
2021/12/06 11:50:06;;;;;;;20.15;9.88;;;12.30;99.90;;;;;;4945651;28;112997;-60
2021/12/06 11:52:34;;;;;;;14.63;10.55;;;12.30;99.90;;;;;;4953222;28;114553;-59
2021/12/06 11:55:11;;;;;;;31.48;21.45;;;12.30;99.90;;;;;;4959729;28;113692;-60
2021/12/06 11:57:42;;;;;;;11.57;4.15;;;12.30;99.90;;;;;;4963027;28;112691;-60
2021/12/06 12:00:19;;;;;;;7.78;3.15;;;12.30;99.90;;;;;;4962181;28;112489;-60
2021/12/06 12:02:57;;;;;;;8.23;2.42;;;12.40;99.90;;;;;;4946437;28;113598;-61
2021/12/06 12:05:38;;;;;;;12.00;4.97;;;12.40;99.90;;;;;;4962620;28;113612;-62
2021/12/06 12:08:11;;;;;;;11.43;3.60;;;12.40;99.90;;;;;;4945417;28;112676;-61
2021/12/06 12:10:41;;;;;;;11.90;5.13;;;12.40;99.90;;;;;;4947459;28;112515;-61
2021/12/06 12:13:07;;;;;;;;;;;12.40;99.90;;;;;;4961815;28;114806;-58
2021/12/06 12:15:34;;;;;;;6.70;3.40;;;12.50;99.90;;;;;;4963614;28;112737;-58
2021/12/06 12:18:01;;;;;;;6.47;3.63;;;12.50;99.90;;;;;;4962467;28;112567;-61
2021/12/06 12:20:28;;;;;;;5.00;2.80;;;12.50;99.90;;;;;;4963040;28;112766;-59
2021/12/06 12:22:57;;;;;;;5.75;2.60;;;12.50;99.90;;;;;;4938649;28;114852;-60
2021/12/06 12:25:32;;;;;;;5.45;2.67;;;12.60;99.90;;;;;;4958590;28;113222;-62
2021/12/06 12:28:22;;;;;;;5.75;2.17;;;12.50;99.90;;;;;;4962906;28;112370;-60
2021/12/06 12:30:49;;;;;;;;;;;12.50;99.90;;;;;;4951680;28;112759;-59
2021/12/06 12:33:19;;;;;;;8.77;3.42;;;12.50;99.90;;;;;;4961136;28;113347;-60
2021/12/06 12:35:51;;;;;;;5.38;3.30;;;12.50;99.90;;;;;;4939576;28;114540;-59
2021/12/06 12:38:23;;;;;;;7.45;3.65;;;12.50;99.90;;;;;;4949619;28;112653;-61
2021/12/06 12:40:54;;;;;;;5.55;2.55;;;12.50;99.90;;;;;;4956365;28;112752;-60
2021/12/06 12:43:42;;;;;;;3.95;2.22;;;12.50;99.90;;;;;;4962515;28;113559;-60
2021/12/06 12:46:19;;;;;;;5.45;3.60;;;12.50;99.90;;;;;;4959019;28;113475;-59
2021/12/06 12:48:52;;;;;;;7.18;3.10;;;12.60;99.90;;;;;;4956781;28;112338;-61
2021/12/06 12:51:22;;;;;;;4.60;3.33;;;12.60;99.90;;;;;;4947491;28;112494;-61
2021/12/06 12:53:59;;;;;;;5.40;2.95;;;12.70;99.90;;;;;;4960797;28;113631;-61
2021/12/06 12:56:29;;;;;;;4.80;2.75;;;12.80;99.90;;;;;;4962737;28;113447;-59
2021/12/06 12:58:55;;;;;;;16.38;8.20;;;12.90;99.90;;;;;;4965247;28;112624;-61
2021/12/06 13:01:24;;;;;;;4.47;2.65;;;13.00;99.90;;;;;;4960049;28;113202;-60
2021/12/06 13:03:51;;;;;;;7.35;3.35;;;13.10;99.90;;;;;;4952493;28;112947;-64
2021/12/06 13:06:28;;;;;;;5.68;3.15;;;13.10;99.90;;;;;;4962893;28;114024;-60